Skip Navigation Links Skip Navigation Links

Current Weather

Boryspil, Kiev, Ukraine

For information only: do not use for flight planning or navigation.
Latest weather
Observation time Monday, December 18, 2017 12:30 AM EET
Local time Monday, December 18, 2017 1:10 AM EET
Flight conditions Marginal Visual Meteorological Conditions
Winds
Wind direction North-Northeast (20°)
Wind speed 13 mph
Visibility 5 mi.
Present weather light snow
Sky condition
Ceiling 1,000 ft. overcast
Cloud layer overcast 1,000 ft.
Temperature 32°F
Dewpoint 28°F
Altimeter 30.03 in.Hg
Derived measurements
Relative humidity 86%
Wind chill 22°F
Density altitude -1332 ft.
Remarks
No significant changes expected in the next two hours.
METAR UKKK 172230Z 02006MPS 8000 -SN OVC010 00/M02 Q1017 R08/190058 NOSIG

Settings

Location code

InnerDrive.Weather 4.0.6144.1 Release CLR 4.0.30319.36366
Copyright ©2015 Inner Drive Technology. All rights reserved. Portions Copyright ©1986-2015 David Braverman.

Find weather

Site navigation


Skip Navigation Links

Place info

Page info

PayPal - The safer, easier way to pay online!

Return home.

Copyright ©2017 Inner Drive Technology. Purveyors of fine, hand-crafted computer software. Page printed 2017-12-17T23:10:56 UTC.